Seattle, Washington
Traffic Map
Current Weather Conditions
Seattle, Washington
Broken Clouds
Broken Clouds

Feels Like: 6°
Wind Chill: Ceiling: 4900
Heat Index: Visibility: 10mi
Dew Point: Wind: 7mph
Humidity: 90% Direction: 140° (SE)
Pressure: 30.34in Gusts: 0mph
Raw Report DataKBFI 281453Z 14006KT 10SM FEW034 BKN049 08/07 A3034 RMK AO2 RAE04 SLP273 P0000 60000 T00830067 53018
Traffic Incident Summary
Active as of:
Severity:
Category:
InformationThere was an issue retrieving the traffic information for this location. Please try a different location or try again shortly.
Advertisements
Track Severe Weather on mobile